createdAt,value
2019-01-05T00:00:56.367Z,82.37
2019-01-05T00:03:37.274Z,82.45
2019-01-05T00:06:29.574Z,82.76
2019-01-05T00:09:29.567Z,82.76
2019-01-05T00:12:18.941Z,83.00
2019-01-05T00:15:29.576Z,83.00
2019-01-05T00:18:35.297Z,82.56
2019-01-05T00:21:38.679Z,82.02
2019-01-05T00:24:31.126Z,82.02
2019-01-05T00:27:32.117Z,82.30
2019-01-05T00:30:21.710Z,82.30
2019-01-05T00:33:29.294Z,82.23
2019-01-05T00:36:41.274Z,82.55
2019-01-05T00:39:43.250Z,82.61
2019-01-05T00:42:37.487Z,82.60
2019-01-05T00:45:40.656Z,82.38
2019-01-05T00:48:33.338Z,82.48
2019-01-05T00:51:32.136Z,82.47
2019-01-05T00:54:44.480Z,82.43
2019-01-05T00:57:41.923Z,82.55
2019-01-05T01:00:33.362Z,82.55
2019-01-05T01:03:23.541Z,82.82
2019-01-05T01:06:13.398Z,82.82
2019-01-05T01:09:05.281Z,83.29
2019-01-05T01:11:53.451Z,83.29
2019-01-05T01:14:43.247Z,83.77
2019-01-05T01:17:38.534Z,83.77
2019-01-05T01:20:41.584Z,83.79
2019-01-05T01:23:51.949Z,84.06
2019-01-05T01:26:41.644Z,84.17
2019-01-05T01:29:33.270Z,84.06
2019-01-05T01:32:25.597Z,83.77
2019-01-05T01:35:19.341Z,83.51
2019-01-05T01:39:06.379Z,83.65
2019-01-05T01:42:00.287Z,83.33
2019-01-05T01:45:05.277Z,83.33
2019-01-05T01:47:55.890Z,83.65
2019-01-05T01:50:47.108Z,83.57
2019-01-05T01:53:53.480Z,83.99
2019-01-05T01:56:44.136Z,84.23
2019-01-05T01:59:50.330Z,84.34
2019-01-05T02:02:46.365Z,84.34
2019-01-05T02:05:48.258Z,83.88
2019-01-05T02:08:38.980Z,83.87
2019-01-05T02:11:36.140Z,83.62
2019-01-05T02:17:54.383Z,83.79
2019-01-05T02:21:16.087Z,83.05
2019-01-05T02:26:55.286Z,82.91
2019-01-05T02:30:19.867Z,82.78
2019-01-05T02:33:25.328Z,82.84
2019-01-05T02:37:14.955Z,82.45
2019-01-05T02:41:04.384Z,83.09
2019-01-05T02:44:59.495Z,83.09
2019-01-05T02:48:52.701Z,83.45
2019-01-05T02:52:53.463Z,83.45
2019-01-05T02:56:51.284Z,83.97
2019-01-05T03:00:38.675Z,83.97
2019-01-05T03:04:45.360Z,84.27
2019-01-05T03:09:00.342Z,84.61
2019-01-05T03:12:40.044Z,84.61
2019-01-05T03:16:33.706Z,84.59
2019-01-05T03:19:55.297Z,84.46
2019-01-05T03:23:27.287Z,84.54
2019-01-05T03:27:10.005Z,84.72
2019-01-05T03:31:00.471Z,84.91
2019-01-05T03:34:31.960Z,85.06
2019-01-05T03:38:18.436Z,85.24
2019-01-05T03:42:23.673Z,85.16
2019-01-05T03:46:05.874Z,85.17
2019-01-05T03:50:17.326Z,85.17
2019-01-05T03:53:46.342Z,85.02
2019-01-05T03:57:08.606Z,84.95
2019-01-05T04:01:12.960Z,84.92
2019-01-05T04:05:21.340Z,84.97
2019-01-05T04:08:52.659Z,85.03
2019-01-05T04:12:54.306Z,84.84
2019-01-05T04:16:12.615Z,84.44
2019-01-05T04:20:07.517Z,84.58
2019-01-05T04:23:56.946Z,84.59
2019-01-05T04:27:40.286Z,84.59
2019-01-05T04:31:09.831Z,84.54
2019-01-05T04:35:10.954Z,84.51
2019-01-05T04:38:46.953Z,84.39
2019-01-05T04:42:36.646Z,84.54
2019-01-05T04:46:19.291Z,84.70
2019-01-05T04:49:35.824Z,84.94
2019-01-05T04:54:06.694Z,85.13
2019-01-05T04:57:52.920Z,85.05
2019-01-05T05:01:56.506Z,84.86
2019-01-05T05:05:56.287Z,84.65
2019-01-05T05:09:40.806Z,84.60
2019-01-05T05:14:00.693Z,84.25
2019-01-05T05:17:48.881Z,83.77
2019-01-05T05:21:57.957Z,83.42
2019-01-05T05:25:53.415Z,83.17
2019-01-05T05:29:40.585Z,83.04
2019-01-05T05:33:42.342Z,83.13
2019-01-05T05:37:20.782Z,83.22
2019-01-05T05:41:30.756Z,83.19
2019-01-05T05:45:31.299Z,83.20
2019-01-05T05:49:38.040Z,83.13
2019-01-05T05:53:03.746Z,83.13
2019-01-05T05:57:04.571Z,83.42
2019-01-05T06:01:05.714Z,83.59
2019-01-05T06:05:13.624Z,83.52
2019-01-05T06:09:14.334Z,83.56
2019-01-05T06:13:05.699Z,83.40
2019-01-05T06:17:17.752Z,83.42
2019-01-05T06:20:59.485Z,83.52
2019-01-05T06:24:41.294Z,83.56
2019-01-05T06:28:48.252Z,83.56
2019-01-05T06:32:32.266Z,83.61
2019-01-05T06:35:44.290Z,83.58
2019-01-05T06:39:10.677Z,83.48
2019-01-05T06:43:05.285Z,83.40
2019-01-05T06:46:47.326Z,83.71
2019-01-05T06:50:39.584Z,83.73
2019-01-05T06:55:05.577Z,83.82
2019-01-05T06:59:00.328Z,83.93
2019-01-05T07:02:48.290Z,83.93
2019-01-05T07:06:13.291Z,83.88
2019-01-05T07:09:37.089Z,83.82
2019-01-05T07:13:26.471Z,83.73
2019-01-05T07:17:31.306Z,83.87
2019-01-05T07:20:57.069Z,83.87
2019-01-05T07:24:53.567Z,83.98
2019-01-05T07:29:01.760Z,83.91
2019-01-05T07:33:09.785Z,83.75
2019-01-05T07:37:31.319Z,83.69
2019-01-05T07:41:18.273Z,84.00
2019-01-05T07:45:27.659Z,84.07
2019-01-05T07:49:03.745Z,84.07
2019-01-05T07:53:04.367Z,84.08
2019-01-05T07:56:51.477Z,84.17
2019-01-05T08:00:58.077Z,84.03
2019-01-05T08:05:09.582Z,84.27
2019-01-05T08:09:18.285Z,84.37
2019-01-05T08:13:07.301Z,84.35
2019-01-05T08:17:12.662Z,84.43
2019-01-05T08:21:06.737Z,84.33
2019-01-05T08:25:06.393Z,84.28
2019-01-05T08:29:24.954Z,84.22
2019-01-05T08:33:44.457Z,84.22
2019-01-05T08:37:47.116Z,84.40
2019-01-05T08:41:52.360Z,84.45
2019-01-05T08:45:48.584Z,84.30
2019-01-05T08:49:59.291Z,84.30
2019-01-05T08:53:24.512Z,84.38
2019-01-05T08:57:11.350Z,84.51
2019-01-05T09:01:04.755Z,84.28
2019-01-05T09:04:56.279Z,84.28
2019-01-05T09:08:24.408Z,84.22
2019-01-05T09:12:07.768Z,84.00
2019-01-05T09:16:08.268Z,84.00
2019-01-05T09:19:49.446Z,83.91
2019-01-05T09:23:29.669Z,83.56
2019-01-05T09:27:22.938Z,83.56
2019-01-05T09:31:34.284Z,83.67
2019-01-05T09:35:17.861Z,83.79
2019-01-05T09:39:10.701Z,83.51
2019-01-05T09:43:13.276Z,83.68
2019-01-05T09:47:00.539Z,83.96
2019-01-05T09:51:17.945Z,83.98
2019-01-05T09:55:15.277Z,84.13
2019-01-05T09:58:57.113Z,84.18
2019-01-05T10:03:13.114Z,84.46
2019-01-05T10:07:08.325Z,84.56
2019-01-05T10:11:04.351Z,84.41
2019-01-05T10:14:55.284Z,84.42
2019-01-05T10:18:44.867Z,84.63
2019-01-05T10:22:29.935Z,84.62
2019-01-05T10:26:34.323Z,84.58
2019-01-05T10:30:34.566Z,84.68
2019-01-05T10:34:49.643Z,84.81
2019-01-05T10:39:02.628Z,84.66
2019-01-05T10:42:48.865Z,84.46
2019-01-05T10:47:05.446Z,84.31
2019-01-05T10:50:51.588Z,84.05
2019-01-05T10:54:27.384Z,84.05
2019-01-05T10:58:26.355Z,84.10
2019-01-05T11:02:19.269Z,83.81
2019-01-05T11:05:37.814Z,83.81
2019-01-05T11:09:31.764Z,83.65
2019-01-05T11:13:11.111Z,83.62
2019-01-05T11:17:12.325Z,83.51
2019-01-05T11:20:48.019Z,83.44
2019-01-05T11:24:40.948Z,83.41
2019-01-05T11:28:27.752Z,83.32
2019-01-05T11:31:55.940Z,83.06
2019-01-05T11:35:41.707Z,82.93
2019-01-05T11:39:29.309Z,82.78
2019-01-05T11:43:04.116Z,82.78
2019-01-05T11:48:44.280Z,82.57
2019-01-05T11:52:11.333Z,82.57
2019-01-05T11:55:55.871Z,82.66
2019-01-05T12:00:07.277Z,82.64
2019-01-05T12:03:58.244Z,82.60
2019-01-05T12:07:51.279Z,82.23
2019-01-05T12:11:28.471Z,82.23
2019-01-05T12:15:11.270Z,82.36
2019-01-05T12:18:53.285Z,82.36
2019-01-05T12:22:27.816Z,82.33
2019-01-05T12:26:14.595Z,82.29
2019-01-05T12:30:27.314Z,82.20
2019-01-05T12:34:35.750Z,82.23
2019-01-05T12:38:24.563Z,82.36
2019-01-05T12:42:11.308Z,82.41
2019-01-05T12:45:58.862Z,82.42
2019-01-05T12:49:41.942Z,82.29
2019-01-05T12:53:48.332Z,81.99
2019-01-05T12:57:17.447Z,81.85
2019-01-05T13:16:18.086Z,81.27
2019-01-05T13:20:09.355Z,81.44
2019-01-05T13:23:41.696Z,81.56
2019-01-05T13:27:46.686Z,81.37
2019-01-05T13:31:53.339Z,81.26
2019-01-05T13:36:03.569Z,81.11
2019-01-05T13:40:36.281Z,81.04
2019-01-05T13:44:20.277Z,80.88
2019-01-05T13:48:30.925Z,80.73
2019-01-05T13:52:16.290Z,80.70
2019-01-05T13:55:21.074Z,80.72
2019-01-05T13:58:04.862Z,80.85
2019-01-05T14:00:56.941Z,80.98
2019-01-05T14:03:46.457Z,80.90
2019-01-05T14:06:35.854Z,80.50
2019-01-05T14:10:59.304Z,80.36
2019-01-05T14:14:05.528Z,80.11
2019-01-05T14:17:05.301Z,80.22
2019-01-05T14:19:57.415Z,80.22
2019-01-05T14:22:47.403Z,80.26
2019-01-05T14:25:44.301Z,80.26
2019-01-05T14:28:46.946Z,79.95
2019-01-05T14:31:36.385Z,79.95
2019-01-05T14:34:32.690Z,80.09
2019-01-05T14:37:27.295Z,80.17
2019-01-05T14:40:23.707Z,80.12
2019-01-05T14:43:17.600Z,80.24
2019-01-05T14:46:08.354Z,80.19
2019-01-05T14:48:58.287Z,80.19
2019-01-05T14:51:46.297Z,80.16
2019-01-05T14:57:53.298Z,80.16
2019-01-05T15:00:44.287Z,80.13
2019-01-05T15:03:41.300Z,80.11
2019-01-05T15:06:32.081Z,80.41
2019-01-05T15:09:21.535Z,80.41
2019-01-05T15:12:18.590Z,80.28
2019-01-05T15:15:10.310Z,80.31
2019-01-05T15:17:58.483Z,80.30
2019-01-05T15:20:49.276Z,80.44
2019-01-05T15:23:31.939Z,80.44
2019-01-05T15:26:33.841Z,80.45
2019-01-05T15:29:23.600Z,80.55
2019-01-05T15:32:23.451Z,80.55
2019-01-05T15:35:12.641Z,80.95
2019-01-05T15:38:03.392Z,80.95
2019-01-05T15:41:10.520Z,81.11
2019-01-05T15:44:00.297Z,81.20
2019-01-05T15:46:51.113Z,81.20
2019-01-05T15:49:40.651Z,81.22
2019-01-05T15:52:30.256Z,81.22
2019-01-05T15:55:17.006Z,81.17
2019-01-05T15:58:25.721Z,81.00
2019-01-05T16:01:15.293Z,80.82
2019-01-05T16:04:12.277Z,80.88
2019-01-05T16:07:04.656Z,80.62
2019-01-05T16:10:03.292Z,80.48
2019-01-05T16:13:12.293Z,80.52
2019-01-05T16:16:07.576Z,80.70
2019-01-05T16:18:57.207Z,80.70
2019-01-05T16:21:49.375Z,80.56
2019-01-05T16:24:39.975Z,80.62
2019-01-05T16:27:33.772Z,80.56
2019-01-05T16:30:25.093Z,80.57
2019-01-05T16:33:21.942Z,80.66
2019-01-05T16:36:18.647Z,80.72
2019-01-05T16:42:23.621Z,81.01
2019-01-05T16:45:14.348Z,80.90
2019-01-05T16:48:11.282Z,80.96
2019-01-05T16:51:00.757Z,80.90
2019-01-05T16:54:00.596Z,80.91
2019-01-05T16:57:06.569Z,81.02
2019-01-05T17:00:03.745Z,80.92
2019-01-05T17:03:09.700Z,81.01
2019-01-05T17:05:59.285Z,81.34
2019-01-05T17:08:48.479Z,81.42
2019-01-05T17:11:39.124Z,81.16
2019-01-05T17:14:38.132Z,81.16
2019-01-05T17:17:37.084Z,81.05
2019-01-05T17:20:41.665Z,81.04
2019-01-05T17:23:41.631Z,81.13
2019-01-05T17:26:32.393Z,81.24
2019-01-05T17:29:21.718Z,81.15
2019-01-05T17:32:11.504Z,81.27
2019-01-05T17:35:09.557Z,81.45
2019-01-05T17:38:06.435Z,81.45
2019-01-05T17:40:57.109Z,81.35
2019-01-05T17:43:46.289Z,81.35
2019-01-05T17:46:30.524Z,81.34
2019-01-05T17:49:21.376Z,81.34
2019-01-05T17:52:14.688Z,81.30
2019-01-05T17:55:04.487Z,81.12
2019-01-05T17:57:54.281Z,81.28
2019-01-05T18:00:47.738Z,81.28
2019-01-05T18:03:38.583Z,81.53
2019-01-05T18:06:34.643Z,81.47
2019-01-05T18:09:29.621Z,81.42
2019-01-05T18:12:26.671Z,81.22
2019-01-05T18:15:28.720Z,81.18
2019-01-05T18:18:19.673Z,81.23
2019-01-05T18:21:16.956Z,81.19
2019-01-05T18:24:06.392Z,81.08
2019-01-05T18:26:52.730Z,80.86
2019-01-05T18:29:42.400Z,80.86
2019-01-05T18:32:39.396Z,81.25
2019-01-05T18:35:28.555Z,81.22
2019-01-05T18:38:19.337Z,81.22
2019-01-05T18:41:10.507Z,81.49
2019-01-05T18:43:59.964Z,81.57
2019-01-05T18:46:49.435Z,81.57
2019-01-05T18:49:55.328Z,81.76
2019-01-05T18:52:51.954Z,81.76
2019-01-05T18:55:41.390Z,81.70
2019-01-05T18:58:34.816Z,81.64
2019-01-05T19:01:31.628Z,81.35
2019-01-05T19:07:30.619Z,81.09
2019-01-05T19:10:24.629Z,81.08
2019-01-05T19:13:28.005Z,81.04
2019-01-05T19:16:08.124Z,81.01
2019-01-05T19:19:01.240Z,81.05
2019-01-05T19:21:42.875Z,81.19
2019-01-05T19:24:33.601Z,81.18
2019-01-05T19:27:15.978Z,80.97
2019-01-05T19:30:18.296Z,80.55
2019-01-05T19:36:04.703Z,80.26
2019-01-05T19:38:54.617Z,80.28
2019-01-05T19:41:48.526Z,80.37
2019-01-05T19:44:36.278Z,80.71
2019-01-05T19:47:41.945Z,80.71
2019-01-05T19:51:25.274Z,81.08
2019-01-05T19:54:26.853Z,81.25
2019-01-05T19:57:19.560Z,81.28
2019-01-05T20:00:22.523Z,80.96
2019-01-05T20:03:12.511Z,80.96
2019-01-05T20:06:02.612Z,81.24
2019-01-05T20:08:53.499Z,81.24
2019-01-05T20:12:02.474Z,81.32
2019-01-05T20:14:56.273Z,81.07
2019-01-05T20:17:45.467Z,81.07
2019-01-05T20:20:36.795Z,80.92
2019-01-05T20:23:29.695Z,80.76
2019-01-05T20:26:12.260Z,80.83
2019-01-05T20:29:09.095Z,80.49
2019-01-05T20:31:57.697Z,80.38
2019-01-05T20:34:47.315Z,80.18
2019-01-05T20:37:41.326Z,80.21
2019-01-05T20:40:30.871Z,80.27
2019-01-05T20:43:21.694Z,80.27
2019-01-05T20:46:11.424Z,80.17
2019-01-05T20:49:01.525Z,80.09
2019-01-05T20:51:52.425Z,80.09
2019-01-05T20:54:55.626Z,79.77
2019-01-05T20:57:45.910Z,79.77
2019-01-05T21:00:41.690Z,79.56
2019-01-05T21:03:31.428Z,79.39
2019-01-05T21:06:40.347Z,79.31
2019-01-05T21:09:35.570Z,79.31
2019-01-05T21:12:41.326Z,79.25
2019-01-05T21:15:32.586Z,79.17
2019-01-05T21:18:32.438Z,78.74
2019-01-05T21:21:29.316Z,79.13
2019-01-05T21:24:33.114Z,79.13
2019-01-05T21:27:17.310Z,79.11
2019-01-05T21:30:10.939Z,79.29
2019-01-05T21:32:56.883Z,79.34
2019-01-05T21:35:46.536Z,79.20
2019-01-05T21:38:46.508Z,79.20
2019-01-05T21:41:31.905Z,79.37
2019-01-05T21:44:21.324Z,79.37
2019-01-05T21:47:17.523Z,79.45
2019-01-05T21:50:17.540Z,79.39
2019-01-05T21:53:05.136Z,79.39
2019-01-05T21:55:57.297Z,79.38
2019-01-05T21:58:55.391Z,79.14
2019-01-05T22:01:44.584Z,78.76
2019-01-05T22:04:37.632Z,78.76
2019-01-05T22:07:37.948Z,78.59
2019-01-05T22:11:42.933Z,78.26
2019-01-05T22:14:33.959Z,78.20
2019-01-05T22:17:23.751Z,78.17
2019-01-05T22:20:32.633Z,78.35
2019-01-05T22:23:23.482Z,78.35
2019-01-05T22:26:20.386Z,78.20
2019-01-05T22:29:09.931Z,77.87
2019-01-05T22:32:03.894Z,77.87
2019-01-05T22:34:53.515Z,77.97
2019-01-05T22:37:56.931Z,77.88
2019-01-05T22:41:45.239Z,78.00
2019-01-05T22:44:41.439Z,77.77
2019-01-05T22:47:31.281Z,77.93
2019-01-05T22:50:20.587Z,77.93
2019-01-05T22:53:10.298Z,77.81
2019-01-05T22:56:04.126Z,77.82
2019-01-05T22:58:54.027Z,77.61
2019-01-05T23:01:43.384Z,77.72
2019-01-05T23:07:26.280Z,77.59
2019-01-05T23:10:24.867Z,77.45
2019-01-05T23:13:30.723Z,77.42
2019-01-05T23:16:21.469Z,77.09
2019-01-05T23:19:18.571Z,77.28
2019-01-05T23:22:08.409Z,77.28
2019-01-05T23:24:53.106Z,75.89
2019-01-05T23:27:54.870Z,75.89
2019-01-05T23:30:48.653Z,75.37
2019-01-05T23:33:38.278Z,75.09
2019-01-05T23:36:27.790Z,74.83
2019-01-05T23:39:17.272Z,74.82
2019-01-05T23:42:07.679Z,74.94
2019-01-05T23:44:58.292Z,74.81
2019-01-05T23:47:46.589Z,75.11
2019-01-05T23:50:40.367Z,75.11
2019-01-05T23:53:31.282Z,75.30
2019-01-05T23:56:19.276Z,75.12
2019-01-05T23:59:06.417Z,75.29
